Terminal Aerodrome Forecast
Issued by NWS Sterling, VA

Current Version | Previous Version | Graphics & Text | Print | Product List | Glossary On
Versions: 1 2 3 4 5 6 7 8 9 10 11 12 13 14 15 16 17 18 19 20 21
765
FTUS41 KLWX 261724
TAFMRB
TAF
KMRB 261724Z 2618/2718 27015G25KT P6SM VCTS BKN080CB
     FM262000 25016G25KT P6SM -TSRA BKN050CB
     FM262300 27006KT P6SM -SHRA VCTS BKN060CB
     FM270100 28010KT P6SM BKN070
     FM270400 01009KT P6SM BKN045
     FM270600 02008KT P6SM OVC020
     FM271600 03005KT P6SM BKN030=

USA.gov is the U.S. government's official web portal to all federal, state and local government web resources and services.